sensor_id;sensor_type;location;lat;lon;timestamp;temperature;humidity
18426;DHT22;9340;48.756;9.226;2023-08-21T00:01:26;23.20;99.90
18426;DHT22;9340;48.756;9.226;2023-08-21T00:03:52;23.20;99.90
18426;DHT22;9340;48.756;9.226;2023-08-21T00:06:19;23.20;99.90
18426;DHT22;9340;48.756;9.226;2023-08-21T00:08:46;23.30;99.90
18426;DHT22;9340;48.756;9.226;2023-08-21T00:11:12;23.20;99.90
18426;DHT22;9340;48.756;9.226;2023-08-21T00:13:40;23.30;99.90
18426;DHT22;9340;48.756;9.226;2023-08-21T00:16:10;23.20;99.90
18426;DHT22;9340;48.756;9.226;2023-08-21T00:18:36;23.20;99.90
18426;DHT22;9340;48.756;9.226;2023-08-21T00:21:03;23.20;99.90
18426;DHT22;9340;48.756;9.226;2023-08-21T00:23:30;23.20;99.90
18426;DHT22;9340;48.756;9.226;2023-08-21T00:25:56;23.30;99.90
18426;DHT22;9340;48.756;9.226;2023-08-21T00:28:23;23.30;99.90
18426;DHT22;9340;48.756;9.226;2023-08-21T00:30:51;23.30;99.90
18426;DHT22;9340;48.756;9.226;2023-08-21T00:33:18;23.20;99.90
18426;DHT22;9340;48.756;9.226;2023-08-21T00:35:44;23.20;99.90
18426;DHT22;9340;48.756;9.226;2023-08-21T00:38:11;23.20;99.90
18426;DHT22;9340;48.756;9.226;2023-08-21T00:40:38;23.20;99.90
18426;DHT22;9340;48.756;9.226;2023-08-21T00:43:04;23.10;99.90
18426;DHT22;9340;48.756;9.226;2023-08-21T00:45:31;23.00;99.90
18426;DHT22;9340;48.756;9.226;2023-08-21T00:47:59;23.00;99.90
18426;DHT22;9340;48.756;9.226;2023-08-21T00:50:26;22.90;99.90
18426;DHT22;9340;48.756;9.226;2023-08-21T00:52:53;22.90;99.90
18426;DHT22;9340;48.756;9.226;2023-08-21T00:55:20;22.80;99.90
18426;DHT22;9340;48.756;9.226;2023-08-21T00:57:46;22.80;99.90
18426;DHT22;9340;48.756;9.226;2023-08-21T01:00:13;22.80;99.90
18426;DHT22;9340;48.756;9.226;2023-08-21T01:02:40;22.80;99.90
18426;DHT22;9340;48.756;9.226;2023-08-21T01:05:09;22.70;99.90
18426;DHT22;9340;48.756;9.226;2023-08-21T01:07:47;22.60;99.90
18426;DHT22;9340;48.756;9.226;2023-08-21T01:10:20;22.60;99.90
18426;DHT22;9340;48.756;9.226;2023-08-21T01:12:53;22.60;99.90
18426;DHT22;9340;48.756;9.226;2023-08-21T01:15:21;22.50;99.90
18426;DHT22;9340;48.756;9.226;2023-08-21T01:17:49;22.50;99.90
18426;DHT22;9340;48.756;9.226;2023-08-21T01:20:18;22.40;99.90
18426;DHT22;9340;48.756;9.226;2023-08-21T01:22:45;22.30;99.90
18426;DHT22;9340;48.756;9.226;2023-08-21T01:25:13;22.40;99.90
18426;DHT22;9340;48.756;9.226;2023-08-21T01:27:42;22.30;99.90
18426;DHT22;9340;48.756;9.226;2023-08-21T01:30:10;22.20;99.90
18426;DHT22;9340;48.756;9.226;2023-08-21T01:32:43;22.20;99.90
18426;DHT22;9340;48.756;9.226;2023-08-21T01:35:12;22.20;99.90
18426;DHT22;9340;48.756;9.226;2023-08-21T01:37:38;22.10;99.90
18426;DHT22;9340;48.756;9.226;2023-08-21T01:40:07;22.10;99.90
18426;DHT22;9340;48.756;9.226;2023-08-21T01:42:35;22.10;99.90
18426;DHT22;9340;48.756;9.226;2023-08-21T01:45:02;22.10;99.90
18426;DHT22;9340;48.756;9.226;2023-08-21T01:47:29;22.10;99.90
18426;DHT22;9340;48.756;9.226;2023-08-21T01:49:55;22.10;99.90
18426;DHT22;9340;48.756;9.226;2023-08-21T01:52:22;22.10;99.90
18426;DHT22;9340;48.756;9.226;2023-08-21T01:54:50;22.00;99.90
18426;DHT22;9340;48.756;9.226;2023-08-21T01:57:16;22.00;99.90
18426;DHT22;9340;48.756;9.226;2023-08-21T01:59:44;21.90;99.90
18426;DHT22;9340;48.756;9.226;2023-08-21T02:02:11;21.90;99.90
18426;DHT22;9340;48.756;9.226;2023-08-21T02:04:38;21.80;99.90
18426;DHT22;9340;48.756;9.226;2023-08-21T02:07:05;21.80;99.90
18426;DHT22;9340;48.756;9.226;2023-08-21T02:09:31;21.80;99.90
18426;DHT22;9340;48.756;9.226;2023-08-21T02:11:58;21.80;99.90
18426;DHT22;9340;48.756;9.226;2023-08-21T02:14:25;21.70;99.90
18426;DHT22;9340;48.756;9.226;2023-08-21T02:16:53;21.70;99.90
18426;DHT22;9340;48.756;9.226;2023-08-21T02:19:20;21.60;99.90
18426;DHT22;9340;48.756;9.226;2023-08-21T02:21:46;21.70;99.90
18426;DHT22;9340;48.756;9.226;2023-08-21T02:24:13;21.60;99.90
18426;DHT22;9340;48.756;9.226;2023-08-21T02:26:39;21.50;99.90
18426;DHT22;9340;48.756;9.226;2023-08-21T02:29:07;21.40;99.90
18426;DHT22;9340;48.756;9.226;2023-08-21T02:31:34;21.40;99.90
18426;DHT22;9340;48.756;9.226;2023-08-21T02:34:02;21.40;99.90
18426;DHT22;9340;48.756;9.226;2023-08-21T02:36:29;21.40;99.90
18426;DHT22;9340;48.756;9.226;2023-08-21T02:38:56;21.50;99.90
18426;DHT22;9340;48.756;9.226;2023-08-21T02:41:22;21.40;99.90
18426;DHT22;9340;48.756;9.226;2023-08-21T02:43:50;21.40;99.90
18426;DHT22;9340;48.756;9.226;2023-08-21T02:46:17;21.40;99.90
18426;DHT22;9340;48.756;9.226;2023-08-21T02:48:43;21.40;99.90
18426;DHT22;9340;48.756;9.226;2023-08-21T02:51:11;21.40;99.90
18426;DHT22;9340;48.756;9.226;2023-08-21T02:53:38;21.30;99.90
18426;DHT22;9340;48.756;9.226;2023-08-21T02:56:04;21.30;99.90
18426;DHT22;9340;48.756;9.226;2023-08-21T02:58:31;21.20;99.90
18426;DHT22;9340;48.756;9.226;2023-08-21T03:00:58;21.20;99.90
18426;DHT22;9340;48.756;9.226;2023-08-21T03:03:25;21.10;99.90
18426;DHT22;9340;48.756;9.226;2023-08-21T03:05:51;21.10;99.90
18426;DHT22;9340;48.756;9.226;2023-08-21T03:08:19;21.10;99.90
18426;DHT22;9340;48.756;9.226;2023-08-21T03:10:46;21.10;99.90
18426;DHT22;9340;48.756;9.226;2023-08-21T03:13:13;21.20;99.90
18426;DHT22;9340;48.756;9.226;2023-08-21T03:15:39;21.10;99.90
18426;DHT22;9340;48.756;9.226;2023-08-21T03:18:06;21.10;99.90
18426;DHT22;9340;48.756;9.226;2023-08-21T03:20:33;21.10;99.90
18426;DHT22;9340;48.756;9.226;2023-08-21T03:22:59;21.10;99.90
18426;DHT22;9340;48.756;9.226;2023-08-21T03:25:28;21.10;99.90
18426;DHT22;9340;48.756;9.226;2023-08-21T03:27:54;21.10;99.90
18426;DHT22;9340;48.756;9.226;2023-08-21T03:30:21;21.00;99.90
18426;DHT22;9340;48.756;9.226;2023-08-21T03:32:48;21.00;99.90
18426;DHT22;9340;48.756;9.226;2023-08-21T03:35:15;21.00;99.90
18426;DHT22;9340;48.756;9.226;2023-08-21T03:37:41;21.10;99.90
18426;DHT22;9340;48.756;9.226;2023-08-21T03:40:09;21.00;99.90
18426;DHT22;9340;48.756;9.226;2023-08-21T03:42:37;21.00;99.90
18426;DHT22;9340;48.756;9.226;2023-08-21T03:45:04;20.90;99.90
18426;DHT22;9340;48.756;9.226;2023-08-21T03:47:31;21.00;99.90
18426;DHT22;9340;48.756;9.226;2023-08-21T03:49:58;21.00;99.90
18426;DHT22;9340;48.756;9.226;2023-08-21T03:52:24;20.80;99.90
18426;DHT22;9340;48.756;9.226;2023-08-21T03:54:51;20.80;99.90
18426;DHT22;9340;48.756;9.226;2023-08-21T03:57:18;20.80;99.90
18426;DHT22;9340;48.756;9.226;2023-08-21T03:59:46;20.80;99.90
18426;DHT22;9340;48.756;9.226;2023-08-21T04:02:12;20.80;99.90
18426;DHT22;9340;48.756;9.226;2023-08-21T04:04:39;20.80;99.90
18426;DHT22;9340;48.756;9.226;2023-08-21T04:07:06;20.70;99.90
18426;DHT22;9340;48.756;9.226;2023-08-21T04:09:32;20.70;99.90
18426;DHT22;9340;48.756;9.226;2023-08-21T04:11:59;20.70;99.90
18426;DHT22;9340;48.756;9.226;2023-08-21T04:14:25;20.70;99.90
18426;DHT22;9340;48.756;9.226;2023-08-21T04:16:53;20.80;99.90
18426;DHT22;9340;48.756;9.226;2023-08-21T04:19:20;20.70;99.90
18426;DHT22;9340;48.756;9.226;2023-08-21T04:21:47;20.70;99.90
18426;DHT22;9340;48.756;9.226;2023-08-21T04:24:13;20.60;99.90
18426;DHT22;9340;48.756;9.226;2023-08-21T04:26:40;20.60;99.90
18426;DHT22;9340;48.756;9.226;2023-08-21T04:29:07;20.60;99.90
18426;DHT22;9340;48.756;9.226;2023-08-21T04:31:33;20.60;99.90
18426;DHT22;9340;48.756;9.226;2023-08-21T04:34:01;20.60;99.90
18426;DHT22;9340;48.756;9.226;2023-08-21T04:36:29;20.70;99.90
18426;DHT22;9340;48.756;9.226;2023-08-21T04:38:56;20.70;99.90
18426;DHT22;9340;48.756;9.226;2023-08-21T04:41:23;20.60;99.90
18426;DHT22;9340;48.756;9.226;2023-08-21T04:43:49;20.70;99.90
18426;DHT22;9340;48.756;9.226;2023-08-21T04:46:16;20.70;99.90
18426;DHT22;9340;48.756;9.226;2023-08-21T04:48:43;20.70;99.90
18426;DHT22;9340;48.756;9.226;2023-08-21T04:51:11;20.70;99.90
18426;DHT22;9340;48.756;9.226;2023-08-21T04:53:37;20.60;99.90
18426;DHT22;9340;48.756;9.226;2023-08-21T04:56:04;20.60;99.90
18426;DHT22;9340;48.756;9.226;2023-08-21T04:58:31;20.60;99.90
18426;DHT22;9340;48.756;9.226;2023-08-21T05:00:57;20.60;99.90
18426;DHT22;9340;48.756;9.226;2023-08-21T05:03:24;20.60;99.90
18426;DHT22;9340;48.756;9.226;2023-08-21T05:05:54;20.70;99.90
18426;DHT22;9340;48.756;9.226;2023-08-21T05:08:23;20.80;99.90
18426;DHT22;9340;48.756;9.226;2023-08-21T05:10:54;21.00;99.90
18426;DHT22;9340;48.756;9.226;2023-08-21T05:13:22;21.00;99.90
18426;DHT22;9340;48.756;9.226;2023-08-21T05:15:51;21.10;99.90
18426;DHT22;9340;48.756;9.226;2023-08-21T05:18:19;21.20;99.90
18426;DHT22;9340;48.756;9.226;2023-08-21T05:20:46;21.30;99.90
18426;DHT22;9340;48.756;9.226;2023-08-21T05:23:12;21.30;99.90
18426;DHT22;9340;48.756;9.226;2023-08-21T05:25:41;21.50;99.90
18426;DHT22;9340;48.756;9.226;2023-08-21T05:28:08;21.60;99.90
18426;DHT22;9340;48.756;9.226;2023-08-21T05:30:36;21.60;99.90
18426;DHT22;9340;48.756;9.226;2023-08-21T05:33:03;21.60;99.90
18426;DHT22;9340;48.756;9.226;2023-08-21T05:35:33;21.70;99.90
18426;DHT22;9340;48.756;9.226;2023-08-21T05:37:59;21.80;99.90
18426;DHT22;9340;48.756;9.226;2023-08-21T05:40:26;21.90;99.90
18426;DHT22;9340;48.756;9.226;2023-08-21T05:42:54;22.00;99.90
18426;DHT22;9340;48.756;9.226;2023-08-21T05:45:21;22.10;99.90
18426;DHT22;9340;48.756;9.226;2023-08-21T05:47:47;22.20;99.90
18426;DHT22;9340;48.756;9.226;2023-08-21T05:50:14;22.30;99.90
18426;DHT22;9340;48.756;9.226;2023-08-21T05:52:41;22.40;99.90
18426;DHT22;9340;48.756;9.226;2023-08-21T05:55:08;22.50;99.90
18426;DHT22;9340;48.756;9.226;2023-08-21T05:57:35;22.70;99.90
18426;DHT22;9340;48.756;9.226;2023-08-21T06:00:05;22.70;99.90
18426;DHT22;9340;48.756;9.226;2023-08-21T06:02:33;22.80;99.90
18426;DHT22;9340;48.756;9.226;2023-08-21T06:05:00;22.90;99.90
18426;DHT22;9340;48.756;9.226;2023-08-21T06:07:27;22.90;99.90
18426;DHT22;9340;48.756;9.226;2023-08-21T06:09:54;23.00;99.90
18426;DHT22;9340;48.756;9.226;2023-08-21T06:12:21;23.20;99.90
18426;DHT22;9340;48.756;9.226;2023-08-21T06:14:47;23.40;99.90
18426;DHT22;9340;48.756;9.226;2023-08-21T06:17:15;23.50;99.90
18426;DHT22;9340;48.756;9.226;2023-08-21T06:19:42;23.60;99.90
18426;DHT22;9340;48.756;9.226;2023-08-21T06:22:09;23.60;99.90
18426;DHT22;9340;48.756;9.226;2023-08-21T06:24:35;23.70;99.90
18426;DHT22;9340;48.756;9.226;2023-08-21T06:27:02;23.70;99.90
18426;DHT22;9340;48.756;9.226;2023-08-21T06:29:29;23.70;99.90
18426;DHT22;9340;48.756;9.226;2023-08-21T06:31:55;23.70;99.90
18426;DHT22;9340;48.756;9.226;2023-08-21T06:34:24;23.70;99.90
18426;DHT22;9340;48.756;9.226;2023-08-21T06:36:50;23.80;99.90
18426;DHT22;9340;48.756;9.226;2023-08-21T06:39:17;23.90;99.90
18426;DHT22;9340;48.756;9.226;2023-08-21T06:41:44;24.00;99.90
18426;DHT22;9340;48.756;9.226;2023-08-21T06:44:10;24.10;99.90
18426;DHT22;9340;48.756;9.226;2023-08-21T06:46:37;24.20;99.90
18426;DHT22;9340;48.756;9.226;2023-08-21T06:49:03;24.30;99.90
18426;DHT22;9340;48.756;9.226;2023-08-21T06:51:32;24.40;99.90
18426;DHT22;9340;48.756;9.226;2023-08-21T06:53:58;24.50;99.90
18426;DHT22;9340;48.756;9.226;2023-08-21T06:56:25;24.70;99.90
18426;DHT22;9340;48.756;9.226;2023-08-21T06:58:52;24.80;99.90
18426;DHT22;9340;48.756;9.226;2023-08-21T07:01:20;24.80;99.90
18426;DHT22;9340;48.756;9.226;2023-08-21T07:03:47;24.90;99.90
18426;DHT22;9340;48.756;9.226;2023-08-21T07:06:14;25.00;99.90
18426;DHT22;9340;48.756;9.226;2023-08-21T07:08:42;25.10;99.90
18426;DHT22;9340;48.756;9.226;2023-08-21T07:11:08;25.10;99.90
18426;DHT22;9340;48.756;9.226;2023-08-21T07:13:35;25.20;99.90
18426;DHT22;9340;48.756;9.226;2023-08-21T07:16:03;25.30;99.90
18426;DHT22;9340;48.756;9.226;2023-08-21T07:18:32;25.40;99.90
18426;DHT22;9340;48.756;9.226;2023-08-21T07:20:59;25.40;99.90
18426;DHT22;9340;48.756;9.226;2023-08-21T07:23:26;25.50;99.90
18426;DHT22;9340;48.756;9.226;2023-08-21T07:25:54;25.50;99.90
18426;DHT22;9340;48.756;9.226;2023-08-21T07:28:21;25.60;99.90
18426;DHT22;9340;48.756;9.226;2023-08-21T07:30:48;25.80;99.90
18426;DHT22;9340;48.756;9.226;2023-08-21T07:33:14;25.70;99.90
18426;DHT22;9340;48.756;9.226;2023-08-21T07:35:41;25.80;99.90
18426;DHT22;9340;48.756;9.226;2023-08-21T07:38:09;26.00;99.90
18426;DHT22;9340;48.756;9.226;2023-08-21T07:40:36;26.10;99.90
18426;DHT22;9340;48.756;9.226;2023-08-21T07:43:04;26.10;99.90
18426;DHT22;9340;48.756;9.226;2023-08-21T07:45:31;26.30;99.90
18426;DHT22;9340;48.756;9.226;2023-08-21T07:47:57;26.40;99.90
18426;DHT22;9340;48.756;9.226;2023-08-21T07:50:24;26.40;99.90
18426;DHT22;9340;48.756;9.226;2023-08-21T07:52:51;26.50;99.90
18426;DHT22;9340;48.756;9.226;2023-08-21T07:55:17;26.60;99.90
18426;DHT22;9340;48.756;9.226;2023-08-21T07:57:44;26.70;99.90
18426;DHT22;9340;48.756;9.226;2023-08-21T08:00:13;26.80;99.90
18426;DHT22;9340;48.756;9.226;2023-08-21T08:02:40;26.80;99.90
18426;DHT22;9340;48.756;9.226;2023-08-21T08:05:08;27.00;99.90
18426;DHT22;9340;48.756;9.226;2023-08-21T08:07:35;27.10;99.90
18426;DHT22;9340;48.756;9.226;2023-08-21T08:10:02;27.20;99.90
18426;DHT22;9340;48.756;9.226;2023-08-21T08:12:29;27.30;99.90
18426;DHT22;9340;48.756;9.226;2023-08-21T08:14:55;27.40;99.90
18426;DHT22;9340;48.756;9.226;2023-08-21T08:17:23;27.50;99.90
18426;DHT22;9340;48.756;9.226;2023-08-21T08:19:50;27.60;99.90
18426;DHT22;9340;48.756;9.226;2023-08-21T08:22:17;27.60;99.90
18426;DHT22;9340;48.756;9.226;2023-08-21T08:24:43;27.70;99.90
18426;DHT22;9340;48.756;9.226;2023-08-21T08:27:10;27.70;99.90
18426;DHT22;9340;48.756;9.226;2023-08-21T08:29:37;27.80;99.90
18426;DHT22;9340;48.756;9.226;2023-08-21T08:32:05;27.90;99.90
18426;DHT22;9340;48.756;9.226;2023-08-21T08:34:33;28.00;99.90
18426;DHT22;9340;48.756;9.226;2023-08-21T08:36:59;28.10;99.90
18426;DHT22;9340;48.756;9.226;2023-08-21T08:39:26;28.20;99.90
18426;DHT22;9340;48.756;9.226;2023-08-21T08:41:58;28.30;99.90
18426;DHT22;9340;48.756;9.226;2023-08-21T08:44:25;28.40;99.90
18426;DHT22;9340;48.756;9.226;2023-08-21T08:46:52;28.50;99.90
18426;DHT22;9340;48.756;9.226;2023-08-21T08:49:20;28.70;99.90
18426;DHT22;9340;48.756;9.226;2023-08-21T08:51:50;29.00;99.90
18426;DHT22;9340;48.756;9.226;2023-08-21T08:54:17;29.40;99.90
18426;DHT22;9340;48.756;9.226;2023-08-21T08:56:45;29.70;99.90
18426;DHT22;9340;48.756;9.226;2023-08-21T08:59:11;29.80;99.90
18426;DHT22;9340;48.756;9.226;2023-08-21T09:01:40;29.90;99.90
18426;DHT22;9340;48.756;9.226;2023-08-21T09:04:07;29.80;99.90
18426;DHT22;9340;48.756;9.226;2023-08-21T09:06:34;29.60;99.90
18426;DHT22;9340;48.756;9.226;2023-08-21T09:09:02;29.50;99.90
18426;DHT22;9340;48.756;9.226;2023-08-21T09:11:29;29.20;99.90
18426;DHT22;9340;48.756;9.226;2023-08-21T09:13:56;29.10;99.90
18426;DHT22;9340;48.756;9.226;2023-08-21T09:16:24;29.00;99.90
18426;DHT22;9340;48.756;9.226;2023-08-21T09:18:53;28.80;99.90
18426;DHT22;9340;48.756;9.226;2023-08-21T09:21:21;28.80;99.90
18426;DHT22;9340;48.756;9.226;2023-08-21T09:23:56;29.10;99.90
18426;DHT22;9340;48.756;9.226;2023-08-21T09:26:24;29.20;99.90
18426;DHT22;9340;48.756;9.226;2023-08-21T09:28:52;29.40;99.90
18426;DHT22;9340;48.756;9.226;2023-08-21T09:31:23;29.50;99.90
18426;DHT22;9340;48.756;9.226;2023-08-21T09:33:55;29.40;99.90
18426;DHT22;9340;48.756;9.226;2023-08-21T09:36:22;29.50;99.90
18426;DHT22;9340;48.756;9.226;2023-08-21T09:38:50;29.50;99.90
18426;DHT22;9340;48.756;9.226;2023-08-21T09:41:19;29.60;99.90
18426;DHT22;9340;48.756;9.226;2023-08-21T09:43:47;29.60;99.90
18426;DHT22;9340;48.756;9.226;2023-08-21T09:46:14;29.60;99.90
18426;DHT22;9340;48.756;9.226;2023-08-21T09:48:42;29.70;99.90
18426;DHT22;9340;48.756;9.226;2023-08-21T09:51:09;29.80;99.90
18426;DHT22;9340;48.756;9.226;2023-08-21T09:53:37;29.70;99.90
18426;DHT22;9340;48.756;9.226;2023-08-21T09:56:05;29.70;99.90
18426;DHT22;9340;48.756;9.226;2023-08-21T09:58:32;29.80;99.90
18426;DHT22;9340;48.756;9.226;2023-08-21T10:01:00;29.70;99.90
18426;DHT22;9340;48.756;9.226;2023-08-21T10:03:32;29.70;99.90
18426;DHT22;9340;48.756;9.226;2023-08-21T10:05:59;29.70;99.90
18426;DHT22;9340;48.756;9.226;2023-08-21T10:08:27;29.70;99.90
18426;DHT22;9340;48.756;9.226;2023-08-21T10:10:55;29.80;99.90
18426;DHT22;9340;48.756;9.226;2023-08-21T10:13:22;29.90;99.90
18426;DHT22;9340;48.756;9.226;2023-08-21T10:15:49;30.10;99.90
18426;DHT22;9340;48.756;9.226;2023-08-21T10:18:22;30.30;99.90
18426;DHT22;9340;48.756;9.226;2023-08-21T10:20:50;30.40;99.90
18426;DHT22;9340;48.756;9.226;2023-08-21T10:23:25;30.50;99.90
18426;DHT22;9340;48.756;9.226;2023-08-21T10:25:54;30.40;99.90
18426;DHT22;9340;48.756;9.226;2023-08-21T10:28:22;30.20;99.90
18426;DHT22;9340;48.756;9.226;2023-08-21T10:30:49;30.20;99.90
18426;DHT22;9340;48.756;9.226;2023-08-21T10:33:16;30.30;99.90
18426;DHT22;9340;48.756;9.226;2023-08-21T10:35:46;30.50;99.90
18426;DHT22;9340;48.756;9.226;2023-08-21T10:38:13;30.60;99.90
18426;DHT22;9340;48.756;9.226;2023-08-21T10:43:37;30.80;99.90
18426;DHT22;9340;48.756;9.226;2023-08-21T10:46:04;30.70;99.90
18426;DHT22;9340;48.756;9.226;2023-08-21T10:48:31;30.70;99.90
18426;DHT22;9340;48.756;9.226;2023-08-21T10:51:01;30.60;99.90
18426;DHT22;9340;48.756;9.226;2023-08-21T10:53:28;30.70;99.90
18426;DHT22;9340;48.756;9.226;2023-08-21T10:55:55;30.80;99.90
18426;DHT22;9340;48.756;9.226;2023-08-21T10:58:22;30.90;99.90
18426;DHT22;9340;48.756;9.226;2023-08-21T11:00:56;30.90;99.90
18426;DHT22;9340;48.756;9.226;2023-08-21T11:03:22;31.00;99.90
18426;DHT22;9340;48.756;9.226;2023-08-21T11:06:04;31.10;99.90
18426;DHT22;9340;48.756;9.226;2023-08-21T11:08:31;31.00;99.90
18426;DHT22;9340;48.756;9.226;2023-08-21T11:11:02;31.00;99.90
18426;DHT22;9340;48.756;9.226;2023-08-21T11:13:29;31.00;99.90
18426;DHT22;9340;48.756;9.226;2023-08-21T11:16:00;31.00;99.90
18426;DHT22;9340;48.756;9.226;2023-08-21T11:18:31;31.10;99.90
18426;DHT22;9340;48.756;9.226;2023-08-21T11:21:06;31.20;99.90
18426;DHT22;9340;48.756;9.226;2023-08-21T11:23:35;31.20;99.90
18426;DHT22;9340;48.756;9.226;2023-08-21T11:26:02;31.20;99.90
18426;DHT22;9340;48.756;9.226;2023-08-21T11:28:30;31.20;99.90
18426;DHT22;9340;48.756;9.226;2023-08-21T11:30:57;31.30;99.90
18426;DHT22;9340;48.756;9.226;2023-08-21T11:33:25;31.50;99.90
18426;DHT22;9340;48.756;9.226;2023-08-21T11:35:52;31.40;99.90
18426;DHT22;9340;48.756;9.226;2023-08-21T11:38:22;31.50;99.90
18426;DHT22;9340;48.756;9.226;2023-08-21T11:40:54;31.50;99.90
18426;DHT22;9340;48.756;9.226;2023-08-21T11:43:22;31.50;99.90
18426;DHT22;9340;48.756;9.226;2023-08-21T11:45:49;31.40;99.90
18426;DHT22;9340;48.756;9.226;2023-08-21T11:48:19;31.30;99.90
18426;DHT22;9340;48.756;9.226;2023-08-21T11:50:48;31.30;99.90
18426;DHT22;9340;48.756;9.226;2023-08-21T11:53:15;31.20;99.90
18426;DHT22;9340;48.756;9.226;2023-08-21T11:55:42;31.20;99.90
18426;DHT22;9340;48.756;9.226;2023-08-21T11:58:10;31.00;99.90
18426;DHT22;9340;48.756;9.226;2023-08-21T12:00:39;30.90;99.90
18426;DHT22;9340;48.756;9.226;2023-08-21T12:03:06;30.80;99.90
18426;DHT22;9340;48.756;9.226;2023-08-21T12:05:35;30.90;99.90
18426;DHT22;9340;48.756;9.226;2023-08-21T12:08:08;31.00;99.90
18426;DHT22;9340;48.756;9.226;2023-08-21T12:10:35;31.00;99.90
18426;DHT22;9340;48.756;9.226;2023-08-21T12:13:03;31.10;99.90
18426;DHT22;9340;48.756;9.226;2023-08-21T12:15:30;31.20;99.90
18426;DHT22;9340;48.756;9.226;2023-08-21T12:17:57;31.30;99.90
18426;DHT22;9340;48.756;9.226;2023-08-21T12:20:23;31.10;99.90
18426;DHT22;9340;48.756;9.226;2023-08-21T12:22:50;31.00;99.90
18426;DHT22;9340;48.756;9.226;2023-08-21T12:25:17;31.10;99.90
18426;DHT22;9340;48.756;9.226;2023-08-21T12:27:43;31.30;99.90
18426;DHT22;9340;48.756;9.226;2023-08-21T12:30:12;31.20;99.90
18426;DHT22;9340;48.756;9.226;2023-08-21T12:32:39;31.10;99.90
18426;DHT22;9340;48.756;9.226;2023-08-21T12:35:06;31.20;99.90
18426;DHT22;9340;48.756;9.226;2023-08-21T12:37:35;31.40;99.90
18426;DHT22;9340;48.756;9.226;2023-08-21T12:40:03;31.40;99.90
18426;DHT22;9340;48.756;9.226;2023-08-21T12:42:29;31.40;99.90
18426;DHT22;9340;48.756;9.226;2023-08-21T12:44:56;31.40;99.90
18426;DHT22;9340;48.756;9.226;2023-08-21T12:47:24;31.50;99.90
18426;DHT22;9340;48.756;9.226;2023-08-21T12:49:51;31.70;99.90
18426;DHT22;9340;48.756;9.226;2023-08-21T12:52:17;31.90;99.90
18426;DHT22;9340;48.756;9.226;2023-08-21T12:54:44;32.00;99.90
18426;DHT22;9340;48.756;9.226;2023-08-21T12:57:11;32.20;99.90
18426;DHT22;9340;48.756;9.226;2023-08-21T12:59:37;32.20;99.90
18426;DHT22;9340;48.756;9.226;2023-08-21T13:02:04;32.30;99.90
18426;DHT22;9340;48.756;9.226;2023-08-21T13:04:32;32.50;99.90
18426;DHT22;9340;48.756;9.226;2023-08-21T13:06:59;32.70;99.90
18426;DHT22;9340;48.756;9.226;2023-08-21T13:09:26;32.90;99.90
18426;DHT22;9340;48.756;9.226;2023-08-21T13:11:54;33.10;99.90
18426;DHT22;9340;48.756;9.226;2023-08-21T13:14:21;33.00;99.90
18426;DHT22;9340;48.756;9.226;2023-08-21T13:16:48;32.90;99.90
18426;DHT22;9340;48.756;9.226;2023-08-21T13:19:14;32.90;99.90
18426;DHT22;9340;48.756;9.226;2023-08-21T13:21:42;33.00;99.90
18426;DHT22;9340;48.756;9.226;2023-08-21T13:24:10;33.00;99.90
18426;DHT22;9340;48.756;9.226;2023-08-21T13:26:36;32.80;99.90
18426;DHT22;9340;48.756;9.226;2023-08-21T13:29:03;32.70;99.90
18426;DHT22;9340;48.756;9.226;2023-08-21T13:31:31;32.80;99.90
18426;DHT22;9340;48.756;9.226;2023-08-21T13:33:57;32.80;99.90
18426;DHT22;9340;48.756;9.226;2023-08-21T13:36:24;32.60;99.90
18426;DHT22;9340;48.756;9.226;2023-08-21T13:38:53;32.70;99.90
18426;DHT22;9340;48.756;9.226;2023-08-21T13:41:20;32.80;99.90
18426;DHT22;9340;48.756;9.226;2023-08-21T13:43:47;32.70;99.90
18426;DHT22;9340;48.756;9.226;2023-08-21T13:46:13;32.80;99.90
18426;DHT22;9340;48.756;9.226;2023-08-21T13:48:40;32.90;99.90
18426;DHT22;9340;48.756;9.226;2023-08-21T13:51:08;33.00;99.90
18426;DHT22;9340;48.756;9.226;2023-08-21T13:53:35;32.80;99.90
18426;DHT22;9340;48.756;9.226;2023-08-21T13:56:03;32.50;99.90
18426;DHT22;9340;48.756;9.226;2023-08-21T13:58:30;32.50;99.90
18426;DHT22;9340;48.756;9.226;2023-08-21T14:00:56;32.50;99.90
18426;DHT22;9340;48.756;9.226;2023-08-21T14:03:23;32.60;99.90
18426;DHT22;9340;48.756;9.226;2023-08-21T14:05:50;32.70;99.90
18426;DHT22;9340;48.756;9.226;2023-08-21T14:08:17;32.70;99.90
18426;DHT22;9340;48.756;9.226;2023-08-21T14:10:43;32.60;99.90
18426;DHT22;9340;48.756;9.226;2023-08-21T14:13:11;32.70;99.90
18426;DHT22;9340;48.756;9.226;2023-08-21T14:15:38;32.50;99.90
18426;DHT22;9340;48.756;9.226;2023-08-21T14:18:05;32.30;99.90
18426;DHT22;9340;48.756;9.226;2023-08-21T14:20:32;32.10;99.90
18426;DHT22;9340;48.756;9.226;2023-08-21T14:22:58;32.00;99.90
18426;DHT22;9340;48.756;9.226;2023-08-21T14:25:25;32.00;99.90
18426;DHT22;9340;48.756;9.226;2023-08-21T14:27:52;32.00;99.90
18426;DHT22;9340;48.756;9.226;2023-08-21T14:30:20;32.10;99.90
18426;DHT22;9340;48.756;9.226;2023-08-21T14:32:47;32.20;99.90
18426;DHT22;9340;48.756;9.226;2023-08-21T14:35:14;32.40;99.90
18426;DHT22;9340;48.756;9.226;2023-08-21T14:37:41;32.60;99.90
18426;DHT22;9340;48.756;9.226;2023-08-21T14:40:08;32.70;99.90
18426;DHT22;9340;48.756;9.226;2023-08-21T14:42:35;32.70;99.90
18426;DHT22;9340;48.756;9.226;2023-08-21T14:45:02;32.70;99.90
18426;DHT22;9340;48.756;9.226;2023-08-21T14:47:31;32.70;99.90
18426;DHT22;9340;48.756;9.226;2023-08-21T14:49:58;32.60;99.90
18426;DHT22;9340;48.756;9.226;2023-08-21T14:52:24;32.50;99.90
18426;DHT22;9340;48.756;9.226;2023-08-21T14:54:52;32.50;99.90
18426;DHT22;9340;48.756;9.226;2023-08-21T14:57:19;32.50;99.90
18426;DHT22;9340;48.756;9.226;2023-08-21T14:59:45;32.40;99.90
18426;DHT22;9340;48.756;9.226;2023-08-21T15:02:12;32.40;99.90
18426;DHT22;9340;48.756;9.226;2023-08-21T15:04:40;32.40;99.90
18426;DHT22;9340;48.756;9.226;2023-08-21T15:07:07;32.40;99.90
18426;DHT22;9340;48.756;9.226;2023-08-21T15:09:33;32.30;99.90
18426;DHT22;9340;48.756;9.226;2023-08-21T15:12:00;32.30;99.90
18426;DHT22;9340;48.756;9.226;2023-08-21T15:14:27;32.30;99.90
18426;DHT22;9340;48.756;9.226;2023-08-21T15:16:54;32.30;99.90
18426;DHT22;9340;48.756;9.226;2023-08-21T15:19:20;32.30;99.90
18426;DHT22;9340;48.756;9.226;2023-08-21T15:21:48;32.30;99.90
18426;DHT22;9340;48.756;9.226;2023-08-21T15:24:15;32.30;99.90
18426;DHT22;9340;48.756;9.226;2023-08-21T15:26:42;32.30;99.90
18426;DHT22;9340;48.756;9.226;2023-08-21T15:29:08;32.30;99.90
18426;DHT22;9340;48.756;9.226;2023-08-21T15:31:35;32.30;99.90
18426;DHT22;9340;48.756;9.226;2023-08-21T15:34:01;32.20;99.90
18426;DHT22;9340;48.756;9.226;2023-08-21T15:36:28;32.20;99.90
18426;DHT22;9340;48.756;9.226;2023-08-21T15:38:56;32.20;99.90
18426;DHT22;9340;48.756;9.226;2023-08-21T15:41:23;32.20;99.90
18426;DHT22;9340;48.756;9.226;2023-08-21T15:43:49;32.20;99.90
18426;DHT22;9340;48.756;9.226;2023-08-21T15:46:17;32.10;99.90
18426;DHT22;9340;48.756;9.226;2023-08-21T15:48:44;32.00;99.90